sensor_id;sensor_type;location;lat;lon;timestamp;P1;durP1;ratioP1;P2;durP2;ratioP2
25717;SDS011;13574;52.040;5.692;2022-10-16T00:01:25;5.25;;;3.78;;
25717;SDS011;13574;52.040;5.692;2022-10-16T00:03:53;9.10;;;4.22;;
25717;SDS011;13574;52.040;5.692;2022-10-16T00:06:20;6.50;;;3.75;;
25717;SDS011;13574;52.040;5.692;2022-10-16T00:08:47;11.20;;;3.95;;
25717;SDS011;13574;52.040;5.692;2022-10-16T00:11:15;5.85;;;3.53;;
25717;SDS011;13574;52.040;5.692;2022-10-16T00:13:46;7.68;;;3.50;;
25717;SDS011;13574;52.040;5.692;2022-10-16T00:16:13;6.70;;;3.42;;
25717;SDS011;13574;52.040;5.692;2022-10-16T00:18:39;7.57;;;3.75;;
25717;SDS011;13574;52.040;5.692;2022-10-16T00:21:07;8.18;;;3.53;;
25717;SDS011;13574;52.040;5.692;2022-10-16T00:23:40;7.30;;;3.63;;
25717;SDS011;13574;52.040;5.692;2022-10-16T00:26:07;7.13;;;3.75;;
25717;SDS011;13574;52.040;5.692;2022-10-16T00:28:35;6.07;;;3.60;;
25717;SDS011;13574;52.040;5.692;2022-10-16T00:31:02;11.68;;;4.18;;
25717;SDS011;13574;52.040;5.692;2022-10-16T00:33:29;7.38;;;3.60;;
25717;SDS011;13574;52.040;5.692;2022-10-16T00:35:57;6.47;;;3.90;;
25717;SDS011;13574;52.040;5.692;2022-10-16T00:38:23;8.95;;;4.10;;
25717;SDS011;13574;52.040;5.692;2022-10-16T00:40:49;9.43;;;4.40;;
25717;SDS011;13574;52.040;5.692;2022-10-16T00:43:34;10.07;;;3.90;;
25717;SDS011;13574;52.040;5.692;2022-10-16T00:46:04;10.93;;;4.07;;
25717;SDS011;13574;52.040;5.692;2022-10-16T00:48:45;7.43;;;4.22;;
25717;SDS011;13574;52.040;5.692;2022-10-16T00:51:19;10.57;;;4.53;;
25717;SDS011;13574;52.040;5.692;2022-10-16T00:53:48;8.82;;;4.18;;
25717;SDS011;13574;52.040;5.692;2022-10-16T00:56:14;8.82;;;4.75;;
25717;SDS011;13574;52.040;5.692;2022-10-16T00:58:40;12.80;;;4.45;;
25717;SDS011;13574;52.040;5.692;2022-10-16T01:01:06;7.35;;;4.85;;
25717;SDS011;13574;52.040;5.692;2022-10-16T01:03:33;8.40;;;4.78;;
25717;SDS011;13574;52.040;5.692;2022-10-16T01:06:04;7.95;;;4.63;;
25717;SDS011;13574;52.040;5.692;2022-10-16T01:11:20;8.35;;;4.70;;
25717;SDS011;13574;52.040;5.692;2022-10-16T01:13:53;12.30;;;4.50;;
25717;SDS011;13574;52.040;5.692;2022-10-16T01:19:10;10.10;;;4.32;;
25717;SDS011;13574;52.040;5.692;2022-10-16T01:21:44;9.45;;;4.13;;
25717;SDS011;13574;52.040;5.692;2022-10-16T01:29:37;6.65;;;4.70;;
25717;SDS011;13574;52.040;5.692;2022-10-16T01:35:22;10.52;;;5.05;;
25717;SDS011;13574;52.040;5.692;2022-10-16T01:37:59;8.77;;;4.78;;
25717;SDS011;13574;52.040;5.692;2022-10-16T01:40:34;7.50;;;4.65;;
25717;SDS011;13574;52.040;5.692;2022-10-16T01:43:05;8.18;;;4.40;;
25717;SDS011;13574;52.040;5.692;2022-10-16T01:45:37;11.27;;;4.95;;
25717;SDS011;13574;52.040;5.692;2022-10-16T01:48:04;9.60;;;4.75;;
25717;SDS011;13574;52.040;5.692;2022-10-16T01:50:33;11.05;;;4.50;;
25717;SDS011;13574;52.040;5.692;2022-10-16T01:53:05;8.57;;;4.63;;
25717;SDS011;13574;52.040;5.692;2022-10-16T01:55:36;7.22;;;4.20;;
25717;SDS011;13574;52.040;5.692;2022-10-16T01:58:07;8.85;;;4.50;;
25717;SDS011;13574;52.040;5.692;2022-10-16T02:00:34;10.18;;;4.55;;
25717;SDS011;13574;52.040;5.692;2022-10-16T02:03:02;6.78;;;4.10;;
25717;SDS011;13574;52.040;5.692;2022-10-16T02:05:38;8.02;;;4.00;;
25717;SDS011;13574;52.040;5.692;2022-10-16T02:08:05;10.05;;;4.20;;
25717;SDS011;13574;52.040;5.692;2022-10-16T02:10:31;8.52;;;4.20;;
25717;SDS011;13574;52.040;5.692;2022-10-16T02:12:59;7.43;;;3.70;;
25717;SDS011;13574;52.040;5.692;2022-10-16T02:15:28;6.43;;;4.20;;
25717;SDS011;13574;52.040;5.692;2022-10-16T02:18:14;7.43;;;4.10;;
25717;SDS011;13574;52.040;5.692;2022-10-16T02:20:43;9.25;;;4.18;;
25717;SDS011;13574;52.040;5.692;2022-10-16T02:23:19;7.00;;;4.38;;
25717;SDS011;13574;52.040;5.692;2022-10-16T02:26:03;8.45;;;3.97;;
25717;SDS011;13574;52.040;5.692;2022-10-16T02:28:46;5.18;;;3.50;;
25717;SDS011;13574;52.040;5.692;2022-10-16T02:31:18;6.15;;;3.97;;
25717;SDS011;13574;52.040;5.692;2022-10-16T02:33:48;6.93;;;3.70;;
25717;SDS011;13574;52.040;5.692;2022-10-16T02:36:16;5.25;;;3.35;;
25717;SDS011;13574;52.040;5.692;2022-10-16T02:38:42;6.38;;;3.72;;
25717;SDS011;13574;52.040;5.692;2022-10-16T02:41:10;4.55;;;3.42;;
25717;SDS011;13574;52.040;5.692;2022-10-16T02:43:37;4.88;;;3.55;;
25717;SDS011;13574;52.040;5.692;2022-10-16T02:46:02;6.30;;;3.45;;
25717;SDS011;13574;52.040;5.692;2022-10-16T02:48:28;6.32;;;3.42;;
25717;SDS011;13574;52.040;5.692;2022-10-16T02:50:54;4.78;;;3.35;;
25717;SDS011;13574;52.040;5.692;2022-10-16T02:53:22;7.13;;;3.20;;
25717;SDS011;13574;52.040;5.692;2022-10-16T02:55:47;7.55;;;3.50;;
25717;SDS011;13574;52.040;5.692;2022-10-16T02:58:13;7.00;;;3.40;;
25717;SDS011;13574;52.040;5.692;2022-10-16T03:00:39;5.78;;;3.60;;
25717;SDS011;13574;52.040;5.692;2022-10-16T03:03:06;8.27;;;3.20;;
25717;SDS011;13574;52.040;5.692;2022-10-16T03:05:32;8.07;;;3.47;;
25717;SDS011;13574;52.040;5.692;2022-10-16T03:08:02;4.22;;;2.90;;
25717;SDS011;13574;52.040;5.692;2022-10-16T03:10:28;7.28;;;3.17;;
25717;SDS011;13574;52.040;5.692;2022-10-16T03:12:54;6.40;;;3.40;;
25717;SDS011;13574;52.040;5.692;2022-10-16T03:15:22;7.35;;;3.33;;
25717;SDS011;13574;52.040;5.692;2022-10-16T03:17:48;6.10;;;3.42;;
25717;SDS011;13574;52.040;5.692;2022-10-16T03:20:13;6.35;;;3.55;;
25717;SDS011;13574;52.040;5.692;2022-10-16T03:22:41;6.07;;;3.20;;
25717;SDS011;13574;52.040;5.692;2022-10-16T03:25:07;6.63;;;3.28;;
25717;SDS011;13574;52.040;5.692;2022-10-16T03:27:33;5.32;;;3.20;;
25717;SDS011;13574;52.040;5.692;2022-10-16T03:30:02;4.97;;;3.08;;
25717;SDS011;13574;52.040;5.692;2022-10-16T03:32:27;5.85;;;3.17;;
25717;SDS011;13574;52.040;5.692;2022-10-16T03:34:53;7.63;;;3.08;;
25717;SDS011;13574;52.040;5.692;2022-10-16T03:37:21;5.78;;;3.10;;
25717;SDS011;13574;52.040;5.692;2022-10-16T03:39:47;6.35;;;3.30;;
25717;SDS011;13574;52.040;5.692;2022-10-16T03:42:12;3.42;;;2.80;;
25717;SDS011;13574;52.040;5.692;2022-10-16T03:44:38;5.38;;;3.03;;
25717;SDS011;13574;52.040;5.692;2022-10-16T03:47:04;4.05;;;3.10;;
25717;SDS011;13574;52.040;5.692;2022-10-16T03:49:32;4.75;;;2.92;;
25717;SDS011;13574;52.040;5.692;2022-10-16T03:51:57;6.80;;;3.22;;
25717;SDS011;13574;52.040;5.692;2022-10-16T03:54:23;5.35;;;3.05;;
25717;SDS011;13574;52.040;5.692;2022-10-16T03:56:49;5.43;;;3.13;;
25717;SDS011;13574;52.040;5.692;2022-10-16T03:59:14;6.15;;;3.25;;
25717;SDS011;13574;52.040;5.692;2022-10-16T04:01:40;5.00;;;2.90;;
25717;SDS011;13574;52.040;5.692;2022-10-16T04:04:08;7.68;;;2.80;;
25717;SDS011;13574;52.040;5.692;2022-10-16T04:06:34;3.45;;;2.70;;
25717;SDS011;13574;52.040;5.692;2022-10-16T04:09:00;4.35;;;2.60;;
25717;SDS011;13574;52.040;5.692;2022-10-16T04:11:25;6.38;;;2.80;;
25717;SDS011;13574;52.040;5.692;2022-10-16T04:13:51;5.85;;;2.63;;
25717;SDS011;13574;52.040;5.692;2022-10-16T04:16:17;7.95;;;2.65;;
25717;SDS011;13574;52.040;5.692;2022-10-16T04:18:42;6.93;;;2.55;;
25717;SDS011;13574;52.040;5.692;2022-10-16T04:21:08;3.28;;;2.53;;
25717;SDS011;13574;52.040;5.692;2022-10-16T04:23:36;4.85;;;2.40;;
25717;SDS011;13574;52.040;5.692;2022-10-16T04:26:02;7.07;;;2.80;;
25717;SDS011;13574;52.040;5.692;2022-10-16T04:28:28;4.68;;;2.28;;
25717;SDS011;13574;52.040;5.692;2022-10-16T04:30:56;3.90;;;2.50;;
25717;SDS011;13574;52.040;5.692;2022-10-16T04:33:24;4.85;;;2.40;;
25717;SDS011;13574;52.040;5.692;2022-10-16T04:35:57;5.63;;;2.53;;
25717;SDS011;13574;52.040;5.692;2022-10-16T04:38:23;8.13;;;2.53;;
25717;SDS011;13574;52.040;5.692;2022-10-16T04:40:56;5.07;;;2.40;;
25717;SDS011;13574;52.040;5.692;2022-10-16T04:43:22;4.53;;;2.33;;
25717;SDS011;13574;52.040;5.692;2022-10-16T04:45:48;5.57;;;2.42;;
25717;SDS011;13574;52.040;5.692;2022-10-16T04:48:18;6.40;;;2.70;;
25717;SDS011;13574;52.040;5.692;2022-10-16T04:50:46;4.78;;;2.70;;
25717;SDS011;13574;52.040;5.692;2022-10-16T04:53:12;5.03;;;2.47;;
25717;SDS011;13574;52.040;5.692;2022-10-16T04:55:38;4.60;;;2.63;;
25717;SDS011;13574;52.040;5.692;2022-10-16T04:58:04;5.35;;;2.70;;
25717;SDS011;13574;52.040;5.692;2022-10-16T05:00:30;5.13;;;2.55;;
25717;SDS011;13574;52.040;5.692;2022-10-16T05:02:56;5.10;;;2.47;;
25717;SDS011;13574;52.040;5.692;2022-10-16T05:05:24;4.00;;;2.67;;
25717;SDS011;13574;52.040;5.692;2022-10-16T05:07:50;5.05;;;2.70;;
25717;SDS011;13574;52.040;5.692;2022-10-16T05:10:16;3.25;;;2.40;;
25717;SDS011;13574;52.040;5.692;2022-10-16T05:12:42;5.10;;;2.83;;
25717;SDS011;13574;52.040;5.692;2022-10-16T05:15:08;7.38;;;3.10;;
25717;SDS011;13574;52.040;5.692;2022-10-16T05:17:34;5.30;;;2.90;;
25717;SDS011;13574;52.040;5.692;2022-10-16T05:20:00;7.07;;;2.90;;
25717;SDS011;13574;52.040;5.692;2022-10-16T05:22:25;5.70;;;3.15;;
25717;SDS011;13574;52.040;5.692;2022-10-16T05:24:51;5.50;;;3.08;;
25717;SDS011;13574;52.040;5.692;2022-10-16T05:29:47;5.45;;;3.45;;
25717;SDS011;13574;52.040;5.692;2022-10-16T05:32:14;4.57;;;3.08;;
25717;SDS011;13574;52.040;5.692;2022-10-16T05:34:52;6.35;;;3.42;;
25717;SDS011;13574;52.040;5.692;2022-10-16T05:37:24;6.38;;;3.40;;
25717;SDS011;13574;52.040;5.692;2022-10-16T05:39:52;3.80;;;3.03;;
25717;SDS011;13574;52.040;5.692;2022-10-16T05:42:17;5.65;;;3.17;;
25717;SDS011;13574;52.040;5.692;2022-10-16T05:44:43;7.10;;;3.33;;
25717;SDS011;13574;52.040;5.692;2022-10-16T05:47:09;6.20;;;3.42;;
25717;SDS011;13574;52.040;5.692;2022-10-16T05:49:37;11.07;;;4.20;;
25717;SDS011;13574;52.040;5.692;2022-10-16T05:52:02;5.53;;;3.80;;
25717;SDS011;13574;52.040;5.692;2022-10-16T05:54:35;4.70;;;3.80;;
25717;SDS011;13574;52.040;5.692;2022-10-16T05:57:01;7.35;;;4.00;;
25717;SDS011;13574;52.040;5.692;2022-10-16T05:59:27;6.38;;;4.30;;
25717;SDS011;13574;52.040;5.692;2022-10-16T06:01:52;6.75;;;3.70;;
25717;SDS011;13574;52.040;5.692;2022-10-16T06:04:21;5.50;;;3.15;;
25717;SDS011;13574;52.040;5.692;2022-10-16T06:06:46;4.63;;;3.30;;
25717;SDS011;13574;52.040;5.692;2022-10-16T06:09:12;5.25;;;3.35;;
25717;SDS011;13574;52.040;5.692;2022-10-16T06:11:37;5.82;;;3.38;;
25717;SDS011;13574;52.040;5.692;2022-10-16T06:14:03;5.40;;;3.20;;
25717;SDS011;13574;52.040;5.692;2022-10-16T06:16:32;5.88;;;3.42;;
25717;SDS011;13574;52.040;5.692;2022-10-16T06:18:59;4.80;;;3.00;;
25717;SDS011;13574;52.040;5.692;2022-10-16T06:21:25;7.50;;;3.85;;
25717;SDS011;13574;52.040;5.692;2022-10-16T06:23:53;6.45;;;4.25;;
25717;SDS011;13574;52.040;5.692;2022-10-16T06:26:20;7.82;;;4.57;;
25717;SDS011;13574;52.040;5.692;2022-10-16T06:28:48;6.35;;;3.60;;
25717;SDS011;13574;52.040;5.692;2022-10-16T06:31:14;6.07;;;3.80;;
25717;SDS011;13574;52.040;5.692;2022-10-16T06:33:40;3.75;;;3.03;;
25717;SDS011;13574;52.040;5.692;2022-10-16T06:36:07;3.65;;;3.03;;
25717;SDS011;13574;52.040;5.692;2022-10-16T06:38:38;6.45;;;2.90;;
25717;SDS011;13574;52.040;5.692;2022-10-16T06:41:05;5.85;;;3.17;;
25717;SDS011;13574;52.040;5.692;2022-10-16T06:43:32;4.72;;;3.63;;
25717;SDS011;13574;52.040;5.692;2022-10-16T06:46:01;4.95;;;3.00;;
25717;SDS011;13574;52.040;5.692;2022-10-16T06:48:28;7.15;;;3.00;;
25717;SDS011;13574;52.040;5.692;2022-10-16T06:50:55;6.18;;;2.97;;
25717;SDS011;13574;52.040;5.692;2022-10-16T06:53:25;6.32;;;3.30;;
25717;SDS011;13574;52.040;5.692;2022-10-16T06:55:52;5.38;;;3.38;;
25717;SDS011;13574;52.040;5.692;2022-10-16T06:58:18;7.22;;;3.15;;
25717;SDS011;13574;52.040;5.692;2022-10-16T07:00:43;5.55;;;3.50;;
25717;SDS011;13574;52.040;5.692;2022-10-16T07:03:09;5.82;;;3.10;;
25717;SDS011;13574;52.040;5.692;2022-10-16T07:05:38;8.30;;;3.20;;
25717;SDS011;13574;52.040;5.692;2022-10-16T07:08:07;7.40;;;3.22;;
25717;SDS011;13574;52.040;5.692;2022-10-16T07:10:33;7.82;;;3.10;;
25717;SDS011;13574;52.040;5.692;2022-10-16T07:12:59;4.47;;;2.92;;
25717;SDS011;13574;52.040;5.692;2022-10-16T07:15:26;5.97;;;3.00;;
25717;SDS011;13574;52.040;5.692;2022-10-16T07:17:52;6.72;;;3.50;;
25717;SDS011;13574;52.040;5.692;2022-10-16T07:20:18;6.20;;;3.60;;
25717;SDS011;13574;52.040;5.692;2022-10-16T07:22:44;8.20;;;3.45;;
25717;SDS011;13574;52.040;5.692;2022-10-16T07:25:10;8.55;;;3.58;;
25717;SDS011;13574;52.040;5.692;2022-10-16T07:27:36;8.20;;;3.90;;
25717;SDS011;13574;52.040;5.692;2022-10-16T07:30:02;7.85;;;3.60;;
25717;SDS011;13574;52.040;5.692;2022-10-16T07:32:28;7.20;;;3.22;;
25717;SDS011;13574;52.040;5.692;2022-10-16T07:34:54;7.25;;;3.90;;
25717;SDS011;13574;52.040;5.692;2022-10-16T07:37:20;9.65;;;4.32;;
25717;SDS011;13574;52.040;5.692;2022-10-16T07:39:46;14.05;;;5.38;;
25717;SDS011;13574;52.040;5.692;2022-10-16T07:42:12;10.32;;;5.13;;
25717;SDS011;13574;52.040;5.692;2022-10-16T07:44:38;10.77;;;4.20;;
25717;SDS011;13574;52.040;5.692;2022-10-16T07:47:03;8.75;;;3.85;;
25717;SDS011;13574;52.040;5.692;2022-10-16T07:49:29;6.65;;;3.22;;
25717;SDS011;13574;52.040;5.692;2022-10-16T07:51:54;6.28;;;2.90;;
25717;SDS011;13574;52.040;5.692;2022-10-16T07:54:20;5.88;;;3.20;;
25717;SDS011;13574;52.040;5.692;2022-10-16T07:56:46;4.25;;;3.20;;
25717;SDS011;13574;52.040;5.692;2022-10-16T07:59:11;5.47;;;3.20;;
25717;SDS011;13574;52.040;5.692;2022-10-16T08:01:37;5.20;;;3.08;;
25717;SDS011;13574;52.040;5.692;2022-10-16T08:04:03;6.45;;;3.20;;
25717;SDS011;13574;52.040;5.692;2022-10-16T08:06:28;6.63;;;3.10;;
25717;SDS011;13574;52.040;5.692;2022-10-16T08:08:55;6.70;;;3.33;;
25717;SDS011;13574;52.040;5.692;2022-10-16T08:11:21;5.55;;;3.10;;
25717;SDS011;13574;52.040;5.692;2022-10-16T08:13:46;8.00;;;3.42;;
25717;SDS011;13574;52.040;5.692;2022-10-16T08:16:12;4.95;;;2.90;;
25717;SDS011;13574;52.040;5.692;2022-10-16T08:18:38;5.47;;;3.20;;
25717;SDS011;13574;52.040;5.692;2022-10-16T08:21:05;5.32;;;2.97;;
25717;SDS011;13574;52.040;5.692;2022-10-16T08:23:32;5.43;;;3.47;;
25717;SDS011;13574;52.040;5.692;2022-10-16T08:26:01;6.10;;;3.30;;
25717;SDS011;13574;52.040;5.692;2022-10-16T08:28:31;4.90;;;2.95;;
25717;SDS011;13574;52.040;5.692;2022-10-16T08:31:04;5.50;;;3.35;;
25717;SDS011;13574;52.040;5.692;2022-10-16T08:33:33;7.00;;;3.50;;
25717;SDS011;13574;52.040;5.692;2022-10-16T08:36:00;8.05;;;3.60;;
25717;SDS011;13574;52.040;5.692;2022-10-16T08:38:26;6.28;;;3.35;;
25717;SDS011;13574;52.040;5.692;2022-10-16T08:40:51;6.47;;;3.30;;
25717;SDS011;13574;52.040;5.692;2022-10-16T08:43:30;6.45;;;3.65;;
25717;SDS011;13574;52.040;5.692;2022-10-16T08:48:53;9.45;;;4.35;;
25717;SDS011;13574;52.040;5.692;2022-10-16T08:51:23;8.85;;;3.90;;
25717;SDS011;13574;52.040;5.692;2022-10-16T08:54:08;12.68;;;4.80;;
25717;SDS011;13574;52.040;5.692;2022-10-16T08:56:43;7.15;;;4.00;;
25717;SDS011;13574;52.040;5.692;2022-10-16T08:59:19;9.15;;;3.70;;
25717;SDS011;13574;52.040;5.692;2022-10-16T09:01:46;7.40;;;3.70;;
25717;SDS011;13574;52.040;5.692;2022-10-16T09:07:20;7.28;;;2.95;;
25717;SDS011;13574;52.040;5.692;2022-10-16T09:12:37;9.85;;;3.03;;
25717;SDS011;13574;52.040;5.692;2022-10-16T09:25:44;7.32;;;2.92;;
25717;SDS011;13574;52.040;5.692;2022-10-16T09:28:12;8.07;;;2.80;;
25717;SDS011;13574;52.040;5.692;2022-10-16T09:30:38;9.90;;;2.90;;
25717;SDS011;13574;52.040;5.692;2022-10-16T09:33:04;7.55;;;2.33;;
25717;SDS011;13574;52.040;5.692;2022-10-16T09:35:33;10.85;;;2.78;;
25717;SDS011;13574;52.040;5.692;2022-10-16T09:38:06;11.43;;;2.60;;
25717;SDS011;13574;52.040;5.692;2022-10-16T09:40:33;6.63;;;2.47;;
25717;SDS011;13574;52.040;5.692;2022-10-16T09:46:19;7.45;;;2.63;;
25717;SDS011;13574;52.040;5.692;2022-10-16T09:49:02;7.35;;;2.50;;
25717;SDS011;13574;52.040;5.692;2022-10-16T09:54:01;8.35;;;2.67;;
25717;SDS011;13574;52.040;5.692;2022-10-16T09:56:38;6.47;;;2.38;;
25717;SDS011;13574;52.040;5.692;2022-10-16T09:59:12;11.85;;;3.00;;
25717;SDS011;13574;52.040;5.692;2022-10-16T10:02:01;10.25;;;2.90;;
25717;SDS011;13574;52.040;5.692;2022-10-16T10:04:36;7.25;;;2.35;;
25717;SDS011;13574;52.040;5.692;2022-10-16T10:07:05;11.50;;;2.80;;
25717;SDS011;13574;52.040;5.692;2022-10-16T10:09:42;13.60;;;2.75;;
25717;SDS011;13574;52.040;5.692;2022-10-16T10:12:20;10.18;;;2.22;;
25717;SDS011;13574;52.040;5.692;2022-10-16T10:14:49;6.93;;;1.95;;
25717;SDS011;13574;52.040;5.692;2022-10-16T10:17:18;11.30;;;2.75;;
25717;SDS011;13574;52.040;5.692;2022-10-16T10:19:53;12.82;;;2.58;;
25717;SDS011;13574;52.040;5.692;2022-10-16T10:30:42;7.93;;;2.00;;
25717;SDS011;13574;52.040;5.692;2022-10-16T10:39:07;15.25;;;2.58;;
25717;SDS011;13574;52.040;5.692;2022-10-16T10:44:37;13.95;;;2.65;;
25717;SDS011;13574;52.040;5.692;2022-10-16T10:47:02;14.70;;;2.60;;
25717;SDS011;13574;52.040;5.692;2022-10-16T11:09:18;11.77;;;2.60;;
25717;SDS011;13574;52.040;5.692;2022-10-16T11:12:01;10.60;;;2.00;;
25717;SDS011;13574;52.040;5.692;2022-10-16T11:14:48;10.38;;;2.20;;
25717;SDS011;13574;52.040;5.692;2022-10-16T11:17:35;9.20;;;2.08;;
25717;SDS011;13574;52.040;5.692;2022-10-16T11:23:50;9.57;;;1.90;;
25717;SDS011;13574;52.040;5.692;2022-10-16T11:26:21;9.65;;;2.08;;
25717;SDS011;13574;52.040;5.692;2022-10-16T11:28:53;8.95;;;2.20;;
25717;SDS011;13574;52.040;5.692;2022-10-16T11:31:37;9.95;;;2.00;;
25717;SDS011;13574;52.040;5.692;2022-10-16T11:36:44;11.25;;;3.05;;
25717;SDS011;13574;52.040;5.692;2022-10-16T11:39:23;13.73;;;2.42;;
25717;SDS011;13574;52.040;5.692;2022-10-16T11:44:48;7.72;;;2.05;;
25717;SDS011;13574;52.040;5.692;2022-10-16T11:47:27;12.30;;;2.22;;
25717;SDS011;13574;52.040;5.692;2022-10-16T11:50:13;9.60;;;2.20;;
25717;SDS011;13574;52.040;5.692;2022-10-16T11:53:13;9.93;;;1.83;;
25717;SDS011;13574;52.040;5.692;2022-10-16T11:55:48;14.20;;;2.35;;
25717;SDS011;13574;52.040;5.692;2022-10-16T11:58:22;13.20;;;2.05;;
25717;SDS011;13574;52.040;5.692;2022-10-16T12:03:35;12.02;;;2.17;;
25717;SDS011;13574;52.040;5.692;2022-10-16T12:06:22;11.55;;;2.05;;
25717;SDS011;13574;52.040;5.692;2022-10-16T12:08:54;10.55;;;1.95;;
25717;SDS011;13574;52.040;5.692;2022-10-16T12:14:07;11.07;;;1.90;;
25717;SDS011;13574;52.040;5.692;2022-10-16T12:17:04;12.45;;;1.85;;
25717;SDS011;13574;52.040;5.692;2022-10-16T12:22:41;11.90;;;2.25;;
25717;SDS011;13574;52.040;5.692;2022-10-16T12:25:23;10.20;;;1.70;;
25717;SDS011;13574;52.040;5.692;2022-10-16T12:30:28;9.83;;;2.03;;
25717;SDS011;13574;52.040;5.692;2022-10-16T12:32:56;12.25;;;2.00;;
25717;SDS011;13574;52.040;5.692;2022-10-16T12:35:26;13.27;;;1.70;;
25717;SDS011;13574;52.040;5.692;2022-10-16T12:38:04;10.77;;;1.67;;
25717;SDS011;13574;52.040;5.692;2022-10-16T12:40:32;11.43;;;1.70;;
25717;SDS011;13574;52.040;5.692;2022-10-16T12:43:10;10.95;;;1.85;;
25717;SDS011;13574;52.040;5.692;2022-10-16T12:45:45;9.88;;;2.13;;
25717;SDS011;13574;52.040;5.692;2022-10-16T12:48:19;9.90;;;1.90;;
25717;SDS011;13574;52.040;5.692;2022-10-16T12:50:46;9.15;;;1.77;;
25717;SDS011;13574;52.040;5.692;2022-10-16T12:53:19;11.38;;;2.10;;
25717;SDS011;13574;52.040;5.692;2022-10-16T13:04:24;10.85;;;1.75;;
25717;SDS011;13574;52.040;5.692;2022-10-16T13:18:19;11.82;;;2.00;;
25717;SDS011;13574;52.040;5.692;2022-10-16T13:23:31;9.30;;;2.33;;
25717;SDS011;13574;52.040;5.692;2022-10-16T13:26:07;9.40;;;2.00;;
25717;SDS011;13574;52.040;5.692;2022-10-16T13:28:40;10.70;;;2.05;;
25717;SDS011;13574;52.040;5.692;2022-10-16T13:31:10;8.43;;;1.63;;
25717;SDS011;13574;52.040;5.692;2022-10-16T13:33:52;9.00;;;1.88;;
25717;SDS011;13574;52.040;5.692;2022-10-16T13:36:25;12.20;;;1.90;;
25717;SDS011;13574;52.040;5.692;2022-10-16T13:41:42;9.13;;;1.67;;
25717;SDS011;13574;52.040;5.692;2022-10-16T13:44:18;12.38;;;1.98;;
25717;SDS011;13574;52.040;5.692;2022-10-16T13:46:45;6.13;;;1.70;;
25717;SDS011;13574;52.040;5.692;2022-10-16T13:49:13;9.68;;;1.77;;
25717;SDS011;13574;52.040;5.692;2022-10-16T13:51:40;8.50;;;1.70;;
25717;SDS011;13574;52.040;5.692;2022-10-16T13:54:10;8.35;;;1.95;;
25717;SDS011;13574;52.040;5.692;2022-10-16T13:56:38;12.77;;;1.87;;
25717;SDS011;13574;52.040;5.692;2022-10-16T13:59:06;15.68;;;1.90;;
25717;SDS011;13574;52.040;5.692;2022-10-16T14:01:47;9.18;;;1.80;;
25717;SDS011;13574;52.040;5.692;2022-10-16T14:04:14;8.85;;;1.58;;
25717;SDS011;13574;52.040;5.692;2022-10-16T14:06:41;10.75;;;1.60;;
25717;SDS011;13574;52.040;5.692;2022-10-16T14:11:46;9.13;;;1.52;;
25717;SDS011;13574;52.040;5.692;2022-10-16T14:14:16;11.13;;;1.90;;
25717;SDS011;13574;52.040;5.692;2022-10-16T14:16:43;10.00;;;1.58;;
25717;SDS011;13574;52.040;5.692;2022-10-16T14:19:13;10.88;;;1.52;;
25717;SDS011;13574;52.040;5.692;2022-10-16T14:21:40;12.45;;;2.03;;
25717;SDS011;13574;52.040;5.692;2022-10-16T14:24:13;9.55;;;1.70;;
25717;SDS011;13574;52.040;5.692;2022-10-16T14:26:47;10.30;;;1.80;;
25717;SDS011;13574;52.040;5.692;2022-10-16T14:29:17;7.97;;;1.70;;
25717;SDS011;13574;52.040;5.692;2022-10-16T14:31:53;10.02;;;2.00;;
25717;SDS011;13574;52.040;5.692;2022-10-16T14:34:27;10.20;;;2.05;;
25717;SDS011;13574;52.040;5.692;2022-10-16T14:36:56;13.95;;;2.60;;
25717;SDS011;13574;52.040;5.692;2022-10-16T14:39:32;11.45;;;2.17;;
25717;SDS011;13574;52.040;5.692;2022-10-16T14:41:58;7.95;;;1.70;;
25717;SDS011;13574;52.040;5.692;2022-10-16T14:44:33;9.82;;;1.77;;
25717;SDS011;13574;52.040;5.692;2022-10-16T14:47:09;12.30;;;2.10;;
25717;SDS011;13574;52.040;5.692;2022-10-16T14:49:38;11.40;;;2.15;;
25717;SDS011;13574;52.040;5.692;2022-10-16T14:52:12;11.63;;;1.83;;
25717;SDS011;13574;52.040;5.692;2022-10-16T14:54:38;10.43;;;1.90;;
25717;SDS011;13574;52.040;5.692;2022-10-16T14:57:04;8.20;;;1.90;;
25717;SDS011;13574;52.040;5.692;2022-10-16T14:59:40;9.48;;;2.00;;
25717;SDS011;13574;52.040;5.692;2022-10-16T15:04:54;12.23;;;1.80;;
25717;SDS011;13574;52.040;5.692;2022-10-16T15:07:20;9.98;;;1.67;;
25717;SDS011;13574;52.040;5.692;2022-10-16T15:09:46;10.27;;;1.50;;
25717;SDS011;13574;52.040;5.692;2022-10-16T15:12:11;11.65;;;2.17;;
25717;SDS011;13574;52.040;5.692;2022-10-16T15:14:38;9.57;;;2.10;;
25717;SDS011;13574;52.040;5.692;2022-10-16T15:17:03;8.32;;;2.15;;
25717;SDS011;13574;52.040;5.692;2022-10-16T15:19:34;10.88;;;3.92;;
25717;SDS011;13574;52.040;5.692;2022-10-16T15:21:59;11.05;;;2.88;;
25717;SDS011;13574;52.040;5.692;2022-10-16T15:24:25;15.05;;;3.97;;
25717;SDS011;13574;52.040;5.692;2022-10-16T15:26:50;13.05;;;4.20;;
25717;SDS011;13574;52.040;5.692;2022-10-16T15:29:16;11.60;;;4.35;;
25717;SDS011;13574;52.040;5.692;2022-10-16T15:31:44;11.48;;;3.38;;
25717;SDS011;13574;52.040;5.692;2022-10-16T15:34:12;8.85;;;2.90;;
25717;SDS011;13574;52.040;5.692;2022-10-16T15:36:38;16.30;;;3.15;;
25717;SDS011;13574;52.040;5.692;2022-10-16T15:39:05;12.27;;;2.58;;
25717;SDS011;13574;52.040;5.692;2022-10-16T15:41:37;12.77;;;2.65;;
25717;SDS011;13574;52.040;5.692;2022-10-16T15:44:03;14.00;;;2.75;;
25717;SDS011;13574;52.040;5.692;2022-10-16T15:46:28;11.38;;;2.50;;
25717;SDS011;13574;52.040;5.692;2022-10-16T15:48:56;16.17;;;2.78;;
25717;SDS011;13574;52.040;5.692;2022-10-16T15:51:23;11.38;;;2.70;;
25717;SDS011;13574;52.040;5.692;2022-10-16T15:53:49;15.00;;;3.03;;
25717;SDS011;13574;52.040;5.692;2022-10-16T15:56:16;9.10;;;2.80;;
25717;SDS011;13574;52.040;5.692;2022-10-16T15:58:42;11.15;;;2.38;;
25717;SDS011;13574;52.040;5.692;2022-10-16T16:01:08;9.13;;;2.00;;
25717;SDS011;13574;52.040;5.692;2022-10-16T16:03:35;14.82;;;2.47;;
25717;SDS011;13574;52.040;5.692;2022-10-16T16:06:08;13.15;;;3.85;;
25717;SDS011;13574;52.040;5.692;2022-10-16T16:08:36;12.27;;;3.22;;
25717;SDS011;13574;52.040;5.692;2022-10-16T16:11:16;19.25;;;8.10;;
25717;SDS011;13574;52.040;5.692;2022-10-16T16:13:42;16.83;;;5.72;;
25717;SDS011;13574;52.040;5.692;2022-10-16T16:16:09;12.27;;;4.85;;
25717;SDS011;13574;52.040;5.692;2022-10-16T16:18:37;18.65;;;7.05;;
25717;SDS011;13574;52.040;5.692;2022-10-16T16:21:03;15.35;;;6.10;;
25717;SDS011;13574;52.040;5.692;2022-10-16T16:23:30;16.05;;;3.08;;
25717;SDS011;13574;52.040;5.692;2022-10-16T16:26:12;7.50;;;2.75;;
25717;SDS011;13574;52.040;5.692;2022-10-16T16:28:51;12.10;;;3.15;;
25717;SDS011;13574;52.040;5.692;2022-10-16T16:31:18;15.48;;;2.75;;
25717;SDS011;13574;52.040;5.692;2022-10-16T16:33:44;10.35;;;2.30;;
25717;SDS011;13574;52.040;5.692;2022-10-16T16:36:09;13.93;;;2.83;;
25717;SDS011;13574;52.040;5.692;2022-10-16T16:38:35;9.85;;;2.70;;
25717;SDS011;13574;52.040;5.692;2022-10-16T16:41:17;10.55;;;2.63;;
25717;SDS011;13574;52.040;5.692;2022-10-16T16:43:45;10.05;;;2.58;;
25717;SDS011;13574;52.040;5.692;2022-10-16T16:46:12;13.48;;;2.33;;
25717;SDS011;13574;52.040;5.692;2022-10-16T16:48:39;13.45;;;2.97;;
25717;SDS011;13574;52.040;5.692;2022-10-16T16:51:09;13.93;;;2.75;;
25717;SDS011;13574;52.040;5.692;2022-10-16T16:53:40;9.82;;;2.60;;
25717;SDS011;13574;52.040;5.692;2022-10-16T16:56:06;16.40;;;3.35;;
25717;SDS011;13574;52.040;5.692;2022-10-16T16:58:32;13.23;;;2.83;;
25717;SDS011;13574;52.040;5.692;2022-10-16T17:00:59;10.57;;;2.75;;
25717;SDS011;13574;52.040;5.692;2022-10-16T17:03:27;12.98;;;3.15;;
25717;SDS011;13574;52.040;5.692;2022-10-16T17:05:57;9.05;;;2.70;;